Time;durP1;ratioP1;P1;durP2;ratioP2;P2;SDS_P1;SDS_P2;PMS_P1;PMS_P2;Temp;Humidity;BMP_temperature;BMP_pressure;BME280_temperature;BME280_humidity;BME280_pressure;Samples;Min_cycle;Max_cycle;Signal;HPM_P1;HPM_P2
2023/02/08 00:01:17;;;;;;;0.63;0.63;;;-0.70;89.30;;;;;;6192452;23;20428;-73
2023/02/08 00:03:43;;;;;;;1.27;0.60;;;-0.80;89.20;;;;;;6190986;23;20009;-73
2023/02/08 00:06:09;;;;;;;1.00;0.80;;;-0.80;89.30;;;;;;6244353;23;20019;-73
2023/02/08 00:08:37;;;;;;;2.58;0.77;;;-0.80;89.30;;;;;;6217270;23;20005;-73
2023/02/08 00:11:04;;;;;;;1.10;0.68;;;-0.80;89.30;;;;;;6217168;23;20020;-74
2023/02/08 00:13:30;;;;;;;0.65;0.50;;;-0.80;89.30;;;;;;6215957;23;20459;-74
2023/02/08 00:15:56;;;;;;;1.45;0.82;;;-0.90;89.30;;;;;;6165744;23;20012;-74
2023/02/08 00:18:22;;;;;;;1.50;0.70;;;-0.80;89.40;;;;;;6192643;23;20019;-74
2023/02/08 00:20:48;;;;;;;0.82;0.63;;;-0.80;89.40;;;;;;6244947;23;20009;-73
2023/02/08 00:23:14;;;;;;;0.70;0.60;;;-0.80;89.40;;;;;;6167734;23;20339;-73
2023/02/08 00:25:41;;;;;;;1.63;0.80;;;-0.80;89.40;;;;;;6214381;23;20302;-73
2023/02/08 00:28:10;;;;;;;1.65;0.80;;;-0.80;89.50;;;;;;6216995;23;20016;-73
2023/02/08 00:30:36;;;;;;;1.27;0.80;;;-0.80;89.40;;;;;;6244155;23;20432;-73
2023/02/08 00:33:02;;;;;;;0.80;0.65;;;-0.90;89.30;;;;;;6192144;23;20012;-73
2023/02/08 00:35:28;;;;;;;1.25;0.70;;;-0.80;89.30;;;;;;6192211;23;20019;-73
2023/02/08 00:37:55;;;;;;;1.10;0.70;;;-0.80;89.40;;;;;;6244408;23;20008;-73
2023/02/08 00:40:20;;;;;;;2.10;0.93;;;-0.80;89.40;;;;;;6217146;23;20082;-73
2023/02/08 00:42:48;;;;;;;1.05;0.65;;;-0.90;89.30;;;;;;6243860;23;20436;-73
2023/02/08 00:45:14;;;;;;;1.55;0.80;;;-0.90;89.30;;;;;;6191975;23;20424;-73
2023/02/08 00:47:39;;;;;;;1.30;0.80;;;-1.00;89.30;;;;;;6244261;23;20011;-73
2023/02/08 00:50:06;;;;;;;1.88;0.80;;;-0.90;89.40;;;;;;6216624;23;20502;-73
2023/02/08 00:52:31;;;;;;;1.58;0.70;;;-0.90;89.40;;;;;;6190352;23;20095;-73
2023/02/08 00:54:57;;;;;;;1.23;0.70;;;-0.90;89.40;;;;;;6217793;23;20042;-73
2023/02/08 00:57:23;;;;;;;1.17;0.80;;;-0.90;89.40;;;;;;6244209;23;20016;-74
2023/02/08 00:59:48;;;;;;;1.30;0.65;;;-0.90;89.40;;;;;;6217183;23;20087;-75
2023/02/08 01:02:14;;;;;;;1.23;0.90;;;-0.90;90.00;;;;;;6214748;23;20031;-74
2023/02/08 01:04:40;;;;;;;1.00;0.80;;;-1.00;89.30;;;;;;6218021;23;20011;-74
2023/02/08 01:07:06;;;;;;;1.55;0.85;;;-0.90;89.40;;;;;;6166247;23;20035;-74
2023/02/08 01:09:32;;;;;;;1.95;0.90;;;-1.00;89.40;;;;;;6243524;23;20331;-75
2023/02/08 01:11:58;;;;;;;1.13;0.70;;;-1.00;89.40;;;;;;6217026;23;20091;-73
2023/02/08 01:14:24;;;;;;;1.52;0.90;;;-1.00;89.40;;;;;;6217642;23;20035;-74
2023/02/08 01:16:50;;;;;;;1.02;0.70;;;-1.00;89.40;;;;;;6191575;23;20443;-73
2023/02/08 01:19:16;;;;;;;1.40;0.70;;;-1.00;89.40;;;;;;6217493;23;20016;-73
2023/02/08 01:21:43;;;;;;;1.45;0.80;;;-1.10;89.40;;;;;;6192276;23;20004;-74
2023/02/08 01:24:09;;;;;;;0.80;0.55;;;-1.00;90.00;;;;;;6192838;23;20004;-73
2023/02/08 01:26:35;;;;;;;0.75;0.70;;;-1.10;89.40;;;;;;6244910;23;20042;-73
2023/02/08 01:29:02;;;;;;;1.85;0.88;;;-1.10;89.50;;;;;;6215212;23;20020;-73
2023/02/08 01:31:31;;;;;;;2.33;0.85;;;-1.00;89.60;;;;;;6192722;23;20009;-73
2023/02/08 01:33:58;;;;;;;1.10;0.70;;;-1.10;89.50;;;;;;6245616;23;20336;-74
2023/02/08 01:36:25;;;;;;;1.17;0.73;;;-1.10;89.60;;;;;;6255852;23;20008;-74
2023/02/08 01:38:51;;;;;;;2.03;1.02;;;-1.10;89.60;;;;;;6228779;23;20022;-74
2023/02/08 01:41:20;;;;;;;1.42;0.80;;;-1.10;89.60;;;;;;6199198;23;20447;-74
2023/02/08 01:44:23;;;;;;;0.93;0.60;;;-1.10;89.60;;;;;;6198136;23;20096;-75
2023/02/08 01:46:50;;;;;;;2.17;0.85;;;-1.10;89.60;;;;;;6232140;23;20004;-74
2023/02/08 01:49:28;;;;;;;0.52;0.50;;;-1.10;89.60;;;;;;6254361;23;20031;-74
2023/02/08 01:52:04;;;;;;;0.65;0.43;;;-1.10;89.50;;;;;;6198158;23;20095;-75
2023/02/08 01:54:37;;;;;;;0.70;0.47;;;-1.20;89.40;;;;;;6169961;23;20455;-75
2023/02/08 01:57:03;;;;;;;1.05;0.60;;;-1.10;89.50;;;;;;6218772;23;20340;-75
2023/02/08 01:59:37;;;;;;;0.40;0.40;;;-1.20;89.40;;;;;;6218574;23;20170;-74
2023/02/08 02:02:06;;;;;;;0.55;0.50;;;-1.20;89.40;;;;;;6193854;23;20019;-75
2023/02/08 02:04:32;;;;;;;0.88;0.52;;;-1.20;89.40;;;;;;6194803;23;20000;-74
2023/02/08 02:07:00;;;;;;;1.65;0.68;;;-1.30;89.40;;;;;;6201948;23;20015;-75
2023/02/08 02:09:41;;;;;;;0.95;0.55;;;-1.20;89.40;;;;;;6201225;23;20444;-75
2023/02/08 02:12:10;;;;;;;1.23;0.75;;;-1.20;89.60;;;;;;6194516;23;20012;-74
2023/02/08 02:14:37;;;;;;;1.02;0.60;;;-1.30;89.50;;;;;;6223174;23;20001;-76
2023/02/08 02:17:03;;;;;;;0.95;0.50;;;-1.30;89.50;;;;;;6194677;23;20077;-73
2023/02/08 02:19:40;;;;;;;1.10;0.68;;;-1.30;90.00;;;;;;6191970;23;20036;-74
2023/02/08 02:22:27;;;;;;;1.42;0.80;;;-1.40;89.60;;;;;;6224837;23;20016;-73
2023/02/08 02:25:17;;;;;;;0.77;0.60;;;-1.40;89.60;;;;;;6221445;23;20008;-74
2023/02/08 02:28:17;;;;;;;1.38;0.70;;;-1.50;89.70;;;;;;6217535;23;20004;-73
2023/02/08 02:31:15;;;;;;;0.98;0.60;;;-1.50;89.80;;;;;;6243497;23;20019;-73
2023/02/08 02:33:52;;;;;;;1.27;0.68;;;-1.50;89.80;;;;;;6174515;23;20012;-74
2023/02/08 02:36:38;;;;;;;1.50;0.70;;;-1.50;89.80;;;;;;6217538;23;20074;-73
2023/02/08 02:39:22;;;;;;;0.77;0.65;;;-1.50;89.90;;;;;;6217644;23;20015;-74
2023/02/08 02:45:18;;;;;;;0.63;0.50;;;-1.60;89.80;;;;;;6244279;23;20019;-75
2023/02/08 02:47:52;;;;;;;1.48;0.80;;;-1.60;89.80;;;;;;6244468;23;20035;-74
2023/02/08 02:50:35;;;;;;;0.70;0.70;;;-1.60;89.80;;;;;;6244493;23;20012;-74
2023/02/08 02:53:27;;;;;;;1.15;0.60;;;-1.60;89.80;;;;;;6215927;23;20084;-74
2023/02/08 02:55:58;;;;;;;0.73;0.50;;;-1.60;89.80;;;;;;6244587;23;20008;-74
2023/02/08 02:58:26;;;;;;;1.42;0.40;;;-1.50;89.80;;;;;;6214432;23;20344;-74
2023/02/08 03:00:55;;;;;;;1.50;0.65;;;-1.60;89.80;;;;;;6244203;23;20095;-74
2023/02/08 03:03:25;;;;;;;1.48;0.60;;;-1.70;89.80;;;;;;6217482;23;20014;-74
2023/02/08 03:05:55;;;;;;;0.95;0.60;;;-1.60;89.90;;;;;;6244180;23;20012;-74
2023/02/08 03:08:42;;;;;;;0.80;0.63;;;-1.70;89.80;;;;;;6192656;23;20371;-74
2023/02/08 03:11:21;;;;;;;1.35;0.60;;;-1.70;89.90;;;;;;6244519;23;20387;-74
2023/02/08 03:14:21;;;;;;;1.10;0.60;;;-1.70;89.80;;;;;;6244465;23;20018;-74
2023/02/08 03:17:12;;;;;;;0.80;0.50;;;-1.70;89.90;;;;;;6199359;23;20348;-73
2023/02/08 03:19:54;;;;;;;1.38;0.80;;;-1.70;89.90;;;;;;6220980;23;20143;-74
2023/02/08 03:22:26;;;;;;;0.95;0.50;;;-1.70;89.90;;;;;;6244217;23;20016;-74
2023/02/08 03:24:58;;;;;;;1.67;0.80;;;-1.70;89.90;;;;;;6244835;23;20016;-73
2023/02/08 03:27:34;;;;;;;0.70;0.60;;;-1.70;89.80;;;;;;6244536;23;20008;-74
2023/02/08 03:30:14;;;;;;;0.77;0.52;;;-1.70;89.80;;;;;;6192218;23;20438;-73
2023/02/08 03:32:51;;;;;;;1.10;0.73;;;-1.70;89.80;;;;;;6216896;23;20004;-73
2023/02/08 03:35:24;;;;;;;1.25;0.80;;;-1.70;89.80;;;;;;6215205;23;20004;-74
2023/02/08 03:37:58;;;;;;;1.25;0.80;;;-1.70;89.80;;;;;;6217246;23;20012;-74
2023/02/08 03:40:28;;;;;;;1.20;0.68;;;-1.80;89.80;;;;;;6244118;23;20016;-74
2023/02/08 03:42:59;;;;;;;0.77;0.55;;;-1.80;89.80;;;;;;6244037;23;20383;-74
2023/02/08 03:45:32;;;;;;;0.90;0.70;;;-1.80;89.90;;;;;;6193093;23;20416;-74
2023/02/08 03:48:03;;;;;;;1.00;0.55;;;-1.70;89.90;;;;;;6217242;23;20008;-74
2023/02/08 03:50:34;;;;;;;1.00;0.52;;;-1.70;89.90;;;;;;6191976;23;20104;-74
2023/02/08 03:53:02;;;;;;;1.48;0.70;;;-1.70;89.80;;;;;;6217836;23;20015;-73
2023/02/08 03:55:31;;;;;;;1.83;0.68;;;-1.70;89.80;;;;;;6217095;23;20107;-74
2023/02/08 03:58:03;;;;;;;1.20;0.70;;;-1.60;89.70;;;;;;6217004;23;20333;-73
2023/02/08 04:00:32;;;;;;;2.33;0.60;;;-1.60;89.70;;;;;;6218584;23;20040;-74
2023/02/08 04:03:07;;;;;;;0.98;0.60;;;-1.70;89.60;;;;;;6192607;23;20337;-74
2023/02/08 04:05:33;;;;;;;1.20;0.77;;;-1.70;89.60;;;;;;6214669;23;20009;-74
2023/02/08 04:07:59;;;;;;;2.33;0.90;;;-1.80;89.60;;;;;;6243961;23;20008;-73
2023/02/08 04:10:25;;;;;;;1.27;0.60;;;-1.90;89.70;;;;;;6243726;23;20091;-73
2023/02/08 04:12:50;;;;;;;1.42;0.73;;;-1.80;89.80;;;;;;6215017;23;20476;-74
2023/02/08 04:15:16;;;;;;;1.80;0.88;;;-1.90;89.80;;;;;;6243803;23;20451;-74
2023/02/08 04:17:42;;;;;;;1.15;0.65;;;-1.90;89.80;;;;;;6191996;23;20017;-74
2023/02/08 04:20:09;;;;;;;0.82;0.70;;;-1.90;90.00;;;;;;6243926;23;20004;-74
2023/02/08 04:22:34;;;;;;;1.63;0.88;;;-2.00;90.00;;;;;;6217309;23;20111;-73
2023/02/08 04:25:00;;;;;;;2.03;1.05;;;-2.00;90.00;;;;;;6192118;23;20032;-74
2023/02/08 04:27:26;;;;;;;1.70;0.90;;;-2.00;90.00;;;;;;6217488;23;20317;-74
2023/02/08 04:29:51;;;;;;;1.13;0.68;;;-2.10;90.00;;;;;;6244128;23;20011;-74
2023/02/08 04:32:17;;;;;;;1.35;0.90;;;-2.10;90.00;;;;;;6244464;23;20079;-73
2023/02/08 04:34:42;;;;;;;1.60;0.75;;;-2.10;90.00;;;;;;6217739;23;20042;-74
2023/02/08 04:37:09;;;;;;;1.65;0.98;;;-2.10;90.00;;;;;;6244375;23;20004;-73
2023/02/08 04:39:35;;;;;;;1.45;0.77;;;-2.10;90.10;;;;;;6167591;23;20309;-74
2023/02/08 04:42:01;;;;;;;1.10;0.80;;;-2.20;90.00;;;;;;6191799;23;20046;-73
2023/02/08 04:44:26;;;;;;;1.70;0.77;;;-2.20;90.10;;;;;;6217574;23;20083;-74
2023/02/08 04:46:52;;;;;;;1.48;0.70;;;-2.20;90.10;;;;;;6217033;23;20336;-73
2023/02/08 04:49:18;;;;;;;1.55;0.70;;;-2.20;90.10;;;;;;6167345;23;19993;-74
2023/02/08 04:51:43;;;;;;;1.35;0.70;;;-2.20;90.10;;;;;;6216632;23;20040;-73
2023/02/08 04:54:09;;;;;;;0.98;0.60;;;-2.20;90.10;;;;;;6244992;23;20011;-73
2023/02/08 04:56:36;;;;;;;1.80;0.90;;;-2.20;90.10;;;;;;6218051;23;20018;-74
2023/02/08 04:59:02;;;;;;;1.00;0.60;;;-2.30;90.10;;;;;;6244755;23;20027;-74
2023/02/08 05:01:27;;;;;;;1.83;0.90;;;-2.30;90.10;;;;;;6216243;23;20012;-73
2023/02/08 05:03:53;;;;;;;1.00;0.68;;;-2.30;90.10;;;;;;6245368;23;20008;-73
2023/02/08 05:06:18;;;;;;;0.82;0.70;;;-2.30;90.10;;;;;;6193515;23;20016;-73
2023/02/08 05:08:44;;;;;;;1.60;0.80;;;-2.30;90.10;;;;;;6245699;23;20012;-74
2023/02/08 05:11:10;;;;;;;0.80;0.50;;;-2.30;90.10;;;;;;6216083;23;20066;-73
2023/02/08 05:13:35;;;;;;;1.00;0.60;;;-2.30;90.10;;;;;;6245285;23;20008;-73
2023/02/08 05:16:01;;;;;;;1.75;0.82;;;-2.30;90.10;;;;;;6244782;23;20087;-73
2023/02/08 05:18:27;;;;;;;1.80;0.65;;;-2.30;90.10;;;;;;6245167;23;20058;-73
2023/02/08 05:20:58;;;;;;;1.83;0.90;;;-2.30;90.10;;;;;;6193209;23;20554;-74
2023/02/08 05:23:25;;;;;;;0.85;0.60;;;-2.30;90.10;;;;;;6244995;23;20031;-73
2023/02/08 05:25:50;;;;;;;1.42;0.80;;;-2.30;90.10;;;;;;6244926;23;20054;-74
2023/02/08 05:28:16;;;;;;;1.10;0.60;;;-2.30;90.10;;;;;;6217064;23;20463;-74
2023/02/08 05:30:42;;;;;;;1.50;0.80;;;-2.20;90.10;;;;;;6245343;23;20015;-74
2023/02/08 05:33:08;;;;;;;1.35;0.60;;;-2.20;90.00;;;;;;6244969;23;20091;-73
2023/02/08 05:35:34;;;;;;;1.55;0.75;;;-2.20;90.00;;;;;;6245127;23;20043;-74
2023/02/08 05:37:59;;;;;;;1.08;0.63;;;-2.20;90.00;;;;;;6216104;23;20551;-74
2023/02/08 05:40:25;;;;;;;1.58;0.68;;;-2.20;90.00;;;;;;6245416;23;20190;-74
2023/02/08 05:42:50;;;;;;;0.73;0.63;;;-2.20;90.00;;;;;;6245150;23;20087;-73
2023/02/08 05:45:16;;;;;;;0.90;0.52;;;-2.10;90.00;;;;;;6245161;23;20004;-74
2023/02/08 05:47:42;;;;;;;1.27;0.80;;;-2.10;90.00;;;;;;6215825;23;20306;-73
2023/02/08 05:50:09;;;;;;;0.73;0.63;;;-2.20;89.90;;;;;;6217949;23;20008;-73
2023/02/08 05:52:34;;;;;;;1.38;0.65;;;-2.10;90.00;;;;;;6244585;23;20012;-73
2023/02/08 05:55:00;;;;;;;1.20;0.85;;;-2.20;90.00;;;;;;6245224;23;20008;-74
2023/02/08 05:57:26;;;;;;;1.15;0.70;;;-2.20;89.90;;;;;;6244821;23;20032;-73
2023/02/08 05:59:51;;;;;;;0.80;0.55;;;-2.20;89.90;;;;;;6244638;23;20016;-74
2023/02/08 06:02:17;;;;;;;1.75;0.75;;;-2.20;89.90;;;;;;6218843;23;20333;-74
2023/02/08 06:04:42;;;;;;;1.13;0.70;;;-2.20;89.90;;;;;;6218613;23;20008;-74
2023/02/08 06:07:08;;;;;;;1.75;0.63;;;-2.20;89.90;;;;;;6167639;23;20020;-74
2023/02/08 06:09:34;;;;;;;1.75;0.90;;;-2.10;89.90;;;;;;6217978;23;20083;-73
2023/02/08 06:11:59;;;;;;;1.45;0.88;;;-2.10;89.90;;;;;;6244710;23;20437;-73
2023/02/08 06:14:25;;;;;;;1.05;0.60;;;-2.10;89.90;;;;;;6218060;23;20092;-74
2023/02/08 06:16:50;;;;;;;1.00;0.55;;;-2.20;89.80;;;;;;6245062;23;20041;-73
2023/02/08 06:19:16;;;;;;;1.45;0.75;;;-2.20;89.90;;;;;;6217878;23;20015;-73
2023/02/08 06:21:42;;;;;;;1.13;0.50;;;-2.10;89.90;;;;;;6218012;23;20020;-73
2023/02/08 06:24:09;;;;;;;1.02;0.75;;;-2.10;89.90;;;;;;6245246;23;20054;-74
2023/02/08 06:26:34;;;;;;;1.25;0.75;;;-2.20;89.80;;;;;;6193018;23;20424;-74
2023/02/08 06:29:00;;;;;;;1.48;0.75;;;-2.20;89.90;;;;;;6192909;23;20092;-73
2023/02/08 06:31:25;;;;;;;1.60;0.90;;;-2.20;89.90;;;;;;6244719;23;20008;-73
2023/02/08 06:33:51;;;;;;;1.05;0.75;;;-2.20;89.90;;;;;;6245163;23;20000;-73
2023/02/08 06:36:17;;;;;;;1.70;0.90;;;-2.20;89.90;;;;;;6215638;23;20012;-74
2023/02/08 06:38:42;;;;;;;1.55;0.70;;;-2.20;89.90;;;;;;6245024;23;20035;-73
2023/02/08 06:41:08;;;;;;;1.25;0.70;;;-2.10;90.00;;;;;;6244642;23;20058;-73
2023/02/08 06:43:34;;;;;;;1.20;0.60;;;-2.20;89.90;;;;;;6215711;23;20472;-73
2023/02/08 06:46:03;;;;;;;2.15;0.70;;;-2.30;89.90;;;;;;6244497;23;20008;-74
2023/02/08 06:48:29;;;;;;;1.15;0.70;;;-2.20;90.00;;;;;;6194485;23;20428;-74
2023/02/08 06:50:55;;;;;;;1.48;0.93;;;-2.20;90.00;;;;;;6192634;23;20062;-74
2023/02/08 06:53:21;;;;;;;1.10;0.70;;;-2.20;89.90;;;;;;6215812;23;20016;-74
2023/02/08 06:55:47;;;;;;;1.80;0.88;;;-2.20;89.90;;;;;;6218610;23;20027;-74
2023/02/08 06:58:13;;;;;;;1.88;0.85;;;-2.30;89.90;;;;;;6217670;23;20324;-74
2023/02/08 07:00:39;;;;;;;0.93;0.65;;;-2.30;89.90;;;;;;6217907;23;20066;-74
2023/02/08 07:03:04;;;;;;;1.02;0.70;;;-2.20;90.00;;;;;;6217434;23;20008;-75
2023/02/08 07:05:33;;;;;;;1.77;0.82;;;-2.30;90.00;;;;;;6245089;23;20012;-74
2023/02/08 07:07:59;;;;;;;1.95;1.08;;;-2.30;90.00;;;;;;6192636;23;20020;-74
2023/02/08 07:10:25;;;;;;;2.40;1.00;;;-2.30;90.00;;;;;;6217753;23;20079;-74
2023/02/08 07:12:50;;;;;;;1.58;0.90;;;-2.20;90.00;;;;;;6215066;23;20083;-74
2023/02/08 07:15:16;;;;;;;2.08;0.85;;;-2.30;90.00;;;;;;6192373;23;20368;-73
2023/02/08 07:17:42;;;;;;;1.10;0.60;;;-2.20;90.00;;;;;;6217564;23;20436;-74
2023/02/08 07:20:08;;;;;;;1.20;0.73;;;-2.30;90.00;;;;;;6218161;23;20058;-74
2023/02/08 07:22:34;;;;;;;1.75;0.80;;;-2.20;90.00;;;;;;6244791;23;20004;-74
2023/02/08 07:24:59;;;;;;;1.00;0.70;;;-2.20;90.00;;;;;;6217985;23;20011;-74
2023/02/08 07:27:25;;;;;;;1.52;0.90;;;-2.20;90.00;;;;;;6217634;23;20078;-74
2023/02/08 07:29:51;;;;;;;1.40;0.80;;;-2.20;90.00;;;;;;6217560;23;20087;-74
2023/02/08 07:32:16;;;;;;;1.48;0.80;;;-2.20;89.90;;;;;;6244936;23;20393;-74
2023/02/08 07:34:42;;;;;;;1.55;0.80;;;-2.10;89.90;;;;;;6217560;23;20092;-74
2023/02/08 07:37:08;;;;;;;1.25;0.60;;;-2.10;89.90;;;;;;6218402;23;20087;-74
2023/02/08 07:39:33;;;;;;;1.85;0.98;;;-2.10;89.90;;;;;;6217801;23;20057;-73
2023/02/08 07:41:59;;;;;;;1.58;0.68;;;-2.10;89.90;;;;;;6217569;23;20045;-74
2023/02/08 07:44:25;;;;;;;1.55;0.73;;;-2.10;89.80;;;;;;6165474;23;20082;-74
2023/02/08 07:46:51;;;;;;;1.42;0.70;;;-2.00;89.70;;;;;;6218324;23;20011;-71
2023/02/08 07:49:17;;;;;;;1.92;0.80;;;-2.00;89.70;;;;;;6217204;23;20020;-73
2023/02/08 07:51:42;;;;;;;1.35;0.80;;;-2.00;89.60;;;;;;6217629;23;20012;-74
2023/02/08 07:54:08;;;;;;;1.10;0.60;;;-2.00;89.60;;;;;;6217703;23;20008;-73
2023/02/08 07:56:34;;;;;;;1.35;0.90;;;-1.90;89.60;;;;;;6245649;23;20099;-74
2023/02/08 07:58:59;;;;;;;1.83;0.90;;;-1.90;89.60;;;;;;6247088;23;20011;-74
2023/02/08 08:01:25;;;;;;;1.05;0.57;;;-1.80;89.60;;;;;;6227276;23;20019;-74
2023/02/08 08:03:51;;;;;;;0.98;0.63;;;-1.70;89.60;;;;;;6252472;23;20004;-73
2023/02/08 08:06:20;;;;;;;1.15;0.93;;;-1.70;89.40;;;;;;6194705;23;20030;-74
2023/02/08 08:08:46;;;;;;;1.38;0.73;;;-1.60;89.40;;;;;;6192533;23;20035;-74
2023/02/08 08:11:13;;;;;;;0.88;0.70;;;-1.60;89.30;;;;;;6220790;23;20016;-73
2023/02/08 08:13:39;;;;;;;1.55;0.73;;;-1.50;89.30;;;;;;6223331;23;20012;-74
2023/02/08 08:16:05;;;;;;;0.95;0.63;;;-1.50;89.20;;;;;;6246624;23;20026;-74
2023/02/08 08:18:33;;;;;;;1.48;0.70;;;-1.40;89.20;;;;;;6194820;23;20000;-76
2023/02/08 08:20:59;;;;;;;1.40;0.90;;;-1.30;89.10;;;;;;6216582;23;20035;-74
2023/02/08 08:23:25;;;;;;;1.10;0.70;;;-1.30;89.00;;;;;;6169156;23;20004;-74
2023/02/08 08:25:51;;;;;;;0.93;0.60;;;-1.20;88.90;;;;;;6193353;23;20046;-74
2023/02/08 08:28:17;;;;;;;1.35;0.80;;;-1.10;88.90;;;;;;6219083;23;20004;-73
2023/02/08 08:30:44;;;;;;;1.33;0.80;;;-1.00;88.80;;;;;;6246394;23;20436;-73
2023/02/08 08:33:10;;;;;;;0.95;0.70;;;-1.00;88.60;;;;;;6244900;23;20412;-73
2023/02/08 08:35:36;;;;;;;0.68;0.68;;;-0.80;88.50;;;;;;6244228;23;20099;-73
2023/02/08 08:38:02;;;;;;;1.13;0.70;;;-0.80;88.40;;;;;;6244980;23;20047;-75
2023/02/08 08:40:27;;;;;;;1.60;1.00;;;-0.70;88.40;;;;;;6217586;23;20043;-73
2023/02/08 08:42:53;;;;;;;1.20;0.80;;;-0.70;88.20;;;;;;6217799;23;20040;-75
2023/02/08 08:45:19;;;;;;;0.50;0.50;;;-0.60;88.20;;;;;;6217970;23;20004;-75
2023/02/08 08:47:44;;;;;;;1.15;0.60;;;-0.50;88.10;;;;;;6214527;23;20008;-74
2023/02/08 08:50:10;;;;;;;1.33;0.75;;;-0.40;88.10;;;;;;6244250;23;20008;-76
2023/02/08 08:52:35;;;;;;;1.33;0.80;;;-0.40;87.90;;;;;;6193049;23;20383;-76
2023/02/08 08:55:01;;;;;;;1.00;0.60;;;-0.30;87.90;;;;;;6214587;23;20429;-75
2023/02/08 08:57:27;;;;;;;1.15;0.82;;;-0.20;87.90;;;;;;6216885;23;20491;-75
2023/02/08 08:59:52;;;;;;;1.23;0.90;;;-0.20;87.70;;;;;;6192169;23;20031;-76
2023/02/08 09:02:18;;;;;;;1.17;0.73;;;-0.10;87.70;;;;;;6167561;23;20016;-75
2023/02/08 09:04:44;;;;;;;1.20;0.73;;;0.00;87.60;;;;;;6244545;23;20011;-72
2023/02/08 09:07:09;;;;;;;1.65;0.90;;;0.00;87.60;;;;;;6244613;23;20452;-75
2023/02/08 09:09:35;;;;;;;0.93;0.60;;;0.10;87.50;;;;;;6218656;23;19997;-75
2023/02/08 09:12:02;;;;;;;1.38;0.60;;;0.20;87.40;;;;;;6218179;23;20012;-72
2023/02/08 09:14:27;;;;;;;1.13;0.70;;;0.20;87.20;;;;;;6243501;23;20012;-72
2023/02/08 09:16:53;;;;;;;1.15;0.70;;;0.30;87.20;;;;;;6243437;23;20435;-73
2023/02/08 09:19:19;;;;;;;0.95;0.70;;;0.40;87.20;;;;;;6243810;23;20015;-76
2023/02/08 09:21:45;;;;;;;0.80;0.60;;;0.50;87.10;;;;;;6216497;23;20379;-72
2023/02/08 09:24:11;;;;;;;1.33;0.60;;;0.60;87.00;;;;;;6216892;23;20095;-72
2023/02/08 09:26:37;;;;;;;1.52;0.93;;;0.60;86.90;;;;;;6216699;23;20008;-72
2023/02/08 09:29:04;;;;;;;1.48;0.80;;;0.60;86.80;;;;;;6166895;23;20018;-73
2023/02/08 09:31:35;;;;;;;1.35;0.90;;;0.70;86.70;;;;;;6243246;23;20008;-72
2023/02/08 09:34:02;;;;;;;1.52;0.88;;;0.80;86.70;;;;;;6193218;23;20032;-73
2023/02/08 09:36:32;;;;;;;2.00;0.80;;;0.80;86.60;;;;;;6191583;23;20020;-73
2023/02/08 09:39:01;;;;;;;1.20;0.73;;;0.90;86.50;;;;;;6191573;23;20008;-72
2023/02/08 09:41:46;;;;;;;1.80;0.90;;;1.10;86.50;;;;;;6218472;23;20016;-72
2023/02/08 09:44:39;;;;;;;1.05;0.75;;;1.00;86.30;;;;;;6196018;23;20019;-72
2023/02/08 09:47:28;;;;;;;1.23;0.60;;;1.10;86.20;;;;;;6222047;23;20007;-72
2023/02/08 09:50:11;;;;;;;0.80;0.65;;;1.10;86.20;;;;;;6244935;23;20034;-72
2023/02/08 09:52:43;;;;;;;0.77;0.60;;;1.20;86.10;;;;;;6221424;23;20061;-72
2023/02/08 09:55:32;;;;;;;1.08;0.80;;;1.20;85.90;;;;;;6244703;23;20015;-72
2023/02/08 09:58:02;;;;;;;1.25;0.80;;;1.30;85.90;;;;;;6244810;23;20012;-71
2023/02/08 10:00:40;;;;;;;1.20;0.60;;;1.40;85.80;;;;;;6218349;23;20005;-72
2023/02/08 10:03:32;;;;;;;1.58;0.80;;;1.50;85.70;;;;;;6244556;23;20079;-73
2023/02/08 10:05:58;;;;;;;0.40;0.40;;;1.50;85.60;;;;;;6217933;23;20012;-72
2023/02/08 10:08:27;;;;;;;0.82;0.63;;;1.60;85.60;;;;;;6216465;23;20027;-73
2023/02/08 10:10:57;;;;;;;1.33;0.68;;;1.60;85.50;;;;;;6217997;23;20087;-72
2023/02/08 10:13:43;;;;;;;0.90;0.67;;;1.70;85.50;;;;;;6219555;23;20324;-72
2023/02/08 10:16:37;;;;;;;1.05;0.68;;;1.70;85.50;;;;;;6221512;23;20253;-72
2023/02/08 10:19:30;;;;;;;1.20;0.73;;;1.70;85.30;;;;;;6223629;23;20443;-72
2023/02/08 10:22:15;;;;;;;1.08;0.60;;;1.80;85.30;;;;;;6223198;23;20125;-72
2023/02/08 10:25:03;;;;;;;1.35;0.85;;;1.80;85.20;;;;;;6218584;23;20031;-72
2023/02/08 10:27:45;;;;;;;1.17;0.70;;;1.90;85.10;;;;;;6218236;23;20004;-72
2023/02/08 10:30:45;;;;;;;0.88;0.70;;;1.90;85.00;;;;;;6218111;23;20003;-72
2023/02/08 10:33:45;;;;;;;1.10;0.70;;;2.00;85.00;;;;;;6244684;23;20008;-72
2023/02/08 10:36:15;;;;;;;0.93;0.50;;;2.10;84.90;;;;;;6222543;23;20004;-73
2023/02/08 10:38:41;;;;;;;0.85;0.63;;;2.20;84.80;;;;;;6244683;23;20012;-71
2023/02/08 10:41:10;;;;;;;0.95;0.70;;;2.20;84.70;;;;;;6244562;23;20095;-72
2023/02/08 10:43:44;;;;;;;1.58;0.90;;;2.20;84.60;;;;;;6244646;23;20004;-71
2023/02/08 10:46:26;;;;;;;1.17;0.80;;;2.30;84.70;;;;;;6217729;23;20015;-71
2023/02/08 10:49:26;;;;;;;0.93;0.73;;;2.30;84.60;;;;;;6245538;23;20114;-72
2023/02/08 10:51:52;;;;;;;1.05;0.65;;;2.50;84.50;;;;;;6224900;23;20008;-72
2023/02/08 10:54:18;;;;;;;0.85;0.68;;;2.50;84.40;;;;;;6245060;23;20065;-71
2023/02/08 10:56:51;;;;;;;1.00;0.65;;;2.60;84.80;;;;;;6218289;23;20016;-71
2023/02/08 10:59:22;;;;;;;1.05;0.80;;;2.70;84.10;;;;;;6193632;23;20043;-71
2023/02/08 11:01:49;;;;;;;1.50;0.80;;;2.70;83.90;;;;;;6219206;23;20008;-72
2023/02/08 11:04:16;;;;;;;1.05;0.70;;;2.80;83.80;;;;;;6244599;23;20011;-72
2023/02/08 11:06:43;;;;;;;0.88;0.55;;;2.80;83.70;;;;;;6218358;23;20004;-73
2023/02/08 11:09:21;;;;;;;1.67;0.98;;;2.90;83.70;;;;;;6192340;23;20013;-72
2023/02/08 11:11:51;;;;;;;1.23;0.70;;;2.90;83.50;;;;;;6244850;23;20040;-73
2023/02/08 11:14:21;;;;;;;0.80;0.60;;;3.00;83.50;;;;;;6217804;23;20070;-71
2023/02/08 11:16:50;;;;;;;1.00;0.70;;;3.00;83.40;;;;;;6244720;23;20066;-72
2023/02/08 11:19:33;;;;;;;0.85;0.65;;;3.10;83.30;;;;;;6245277;23;20106;-72
2023/02/08 11:22:00;;;;;;;1.77;1.05;;;3.20;83.30;;;;;;6214955;23;20104;-73
2023/02/08 11:24:38;;;;;;;0.85;0.80;;;3.20;83.10;;;;;;6244163;23;20051;-73
2023/02/08 11:27:15;;;;;;;1.15;0.82;;;3.30;82.90;;;;;;6244221;23;20012;-73
2023/02/08 11:29:42;;;;;;;1.23;0.82;;;3.40;82.90;;;;;;6218360;23;20015;-72
2023/02/08 11:32:18;;;;;;;1.60;0.85;;;3.50;82.80;;;;;;6244141;23;20008;-72
2023/02/08 11:34:44;;;;;;;1.55;1.00;;;3.50;82.60;;;;;;6243861;23;20389;-72
2023/02/08 11:37:15;;;;;;;0.98;0.80;;;3.60;82.50;;;;;;6244148;23;20016;-71
2023/02/08 11:39:48;;;;;;;1.55;0.80;;;3.70;82.30;;;;;;6244594;23;20322;-71
2023/02/08 11:42:26;;;;;;;1.13;0.68;;;3.80;82.30;;;;;;6244199;23;20012;-71
2023/02/08 11:44:53;;;;;;;1.27;0.70;;;3.80;82.10;;;;;;6244872;23;20115;-71
2023/02/08 11:47:25;;;;;;;1.17;0.80;;;4.00;82.10;;;;;;6245030;23;20014;-71
2023/02/08 11:49:53;;;;;;;;;;;3.80;81.80;;;;;;6244826;23;20058;-72
2023/02/08 11:52:24;;;;;;;1.00;0.70;;;4.00;81.80;;;;;;6244394;23;20217;-72
2023/02/08 11:54:50;;;;;;;0.68;0.60;;;4.00;81.70;;;;;;6218048;23;20099;-71
2023/02/08 11:57:26;;;;;;;1.27;0.63;;;4.10;81.60;;;;;;6244798;23;20008;-71
2023/02/08 12:00:34;;;;;;;1.38;0.95;;;4.20;81.40;;;;;;6217913;23;20008;-72
2023/02/08 12:03:12;;;;;;;1.42;0.70;;;4.30;81.30;;;;;;6243684;23;20070;-73
2023/02/08 12:06:07;;;;;;;1.50;0.65;;;4.30;81.10;;;;;;6192916;23;20095;-73
2023/02/08 12:08:56;;;;;;;0.98;0.75;;;4.40;81.00;;;;;;6244250;23;20447;-72
2023/02/08 12:11:35;;;;;;;1.05;0.70;;;4.50;80.80;;;;;;6196515;23;20098;-73
2023/02/08 12:14:29;;;;;;;0.90;0.88;;;4.70;80.80;;;;;;6169901;23;20011;-73
2023/02/08 12:17:26;;;;;;;1.70;0.88;;;4.80;80.50;;;;;;6194175;23;20012;-74
2023/02/08 12:20:12;;;;;;;1.02;0.68;;;4.90;80.20;;;;;;6244705;23;20012;-72
2023/02/08 12:23:14;;;;;;;0.75;0.70;;;5.00;80.00;;;;;;6244985;23;20078;-73
2023/02/08 12:26:03;;;;;;;0.82;0.60;;;5.10;79.90;;;;;;6221877;23;20012;-73
2023/02/08 12:29:00;;;;;;;0.85;0.50;;;5.30;79.60;;;;;;6244243;23;20026;-73
2023/02/08 12:31:55;;;;;;;0.40;0.40;;;5.40;79.40;;;;;;6243824;23;20005;-73
2023/02/08 12:34:40;;;;;;;0.93;0.80;;;5.50;79.10;;;;;;6217882;23;20011;-73
2023/02/08 12:43:57;;;;;;;1.73;0.70;;;5.90;78.50;;;;;;6243824;23;20016;-73
2023/02/08 12:46:55;;;;;;;1.15;0.60;;;5.90;78.20;;;;;;6217444;23;20440;-73
2023/02/08 12:49:33;;;;;;;0.60;0.60;;;6.20;78.30;;;;;;6221515;23;20042;-72
2023/02/08 12:52:35;;;;;;;1.20;0.80;;;6.20;78.10;;;;;;6215854;23;20040;-73
2023/02/08 12:55:25;;;;;;;0.82;0.52;;;6.20;77.80;;;;;;6222755;23;20062;-73
2023/02/08 12:57:57;;;;;;;0.70;0.70;;;6.40;77.70;;;;;;6217464;23;20092;-74
2023/02/08 13:00:39;;;;;;;1.05;0.57;;;6.60;77.60;;;;;;6244311;23;20011;-73
2023/02/08 13:03:26;;;;;;;1.13;0.77;;;6.70;77.20;;;;;;6216642;23;20019;-73
2023/02/08 13:05:53;;;;;;;1.25;0.88;;;6.80;76.90;;;;;;6219989;23;20376;-73
2023/02/08 13:08:45;;;;;;;2.00;1.10;;;7.00;76.60;;;;;;6191979;23;20016;-73
2023/02/08 13:11:19;;;;;;;1.13;0.70;;;7.20;76.20;;;;;;6221736;23;20015;-74
2023/02/08 13:14:07;;;;;;;0.77;0.60;;;7.20;76.00;;;;;;6244050;23;20035;-72
2023/02/08 13:16:40;;;;;;;0.98;0.70;;;7.40;75.80;;;;;;6218404;23;20340;-73
2023/02/08 13:19:23;;;;;;;0.50;0.50;;;7.30;75.60;;;;;;6218351;23;20038;-73
2023/02/08 13:21:51;;;;;;;0.68;0.50;;;7.40;75.50;;;;;;6193349;23;20016;-73